Time;durP1;ratioP1;P1;durP2;ratioP2;P2;SDS_P1;SDS_P2;PMS_P1;PMS_P2;Temp;Humidity;BMP_temperature;BMP_pressure;BME280_temperature;BME280_humidity;BME280_pressure;Samples;Min_cycle;Max_cycle;Signal;HPM_P1;HPM_P2
2022/07/20 00:00:49;;;;;;;2.95;2.13;;;;;;;27.38;47.21;100994.69;4973931;28;20047;-65
2022/07/20 00:03:15;;;;;;;5.43;2.13;;;;;;;27.24;48.26;100998.03;4974109;28;20022;-65
2022/07/20 00:05:45;;;;;;;3.65;2.20;;;;;;;27.19;48.53;100998.66;4973975;28;20038;-65
2022/07/20 00:08:11;;;;;;;3.33;2.17;;;;;;;27.06;48.46;100993.25;4972835;28;20130;-65
2022/07/20 00:13:24;;;;;;;2.40;1.63;;;;;;;26.76;49.08;101000.44;4974140;28;20588;-65
2022/07/20 00:15:52;;;;;;;3.38;1.80;;;;;;;26.71;48.92;100991.97;4973716;28;20031;-65
2022/07/20 00:18:18;;;;;;;4.68;2.13;;;;;;;26.90;48.50;100999.09;4972672;28;20093;-65
2022/07/20 00:20:49;;;;;;;3.33;1.92;;;;;;;26.90;48.28;100985.25;4973485;28;20035;-65
2022/07/20 00:23:17;;;;;;;2.65;1.90;;;;;;;26.67;49.34;100986.53;4956774;28;20118;-65
2022/07/20 00:25:47;;;;;;;3.40;1.98;;;;;;;26.52;49.56;100982.81;4973500;28;20110;-65
2022/07/20 00:28:17;;;;;;;3.90;1.98;;;;;;;26.63;49.61;100993.47;4972831;28;20053;-65
2022/07/20 00:30:43;;;;;;;3.42;2.35;;;;;;;26.44;50.12;100992.63;4973309;28;20097;-65
2022/07/20 00:33:15;;;;;;;5.25;2.40;;;;;;;26.36;50.20;100980.31;4973722;28;20027;-65
2022/07/20 00:35:43;;;;;;;3.35;2.08;;;;;;;26.59;49.55;100982.56;4991622;28;20027;-65
2022/07/20 00:38:12;;;;;;;3.47;2.15;;;;;;;26.59;49.78;100982.56;4972343;28;20038;-65
2022/07/20 00:40:40;;;;;;;3.83;2.13;;;;;;;26.49;50.10;100982.97;4973050;28;20050;-65
2022/07/20 00:43:06;;;;;;;4.90;1.90;;;;;;;26.46;49.28;100990.16;4973141;28;20070;-65
2022/07/20 00:45:32;;;;;;;4.03;2.10;;;;;;;26.53;49.12;100981.59;4973057;28;20062;-65
2022/07/20 00:48:01;;;;;;;3.65;2.20;;;;;;;26.55;49.03;100983.91;4971895;28;20034;-65
2022/07/20 00:50:27;;;;;;;2.58;1.75;;;;;;;26.55;49.30;100986.69;4973159;28;20446;-65
2022/07/20 00:52:56;;;;;;;3.40;1.88;;;;;;;26.41;50.02;100978.94;4972930;28;20043;-65
2022/07/20 00:55:24;;;;;;;3.90;1.73;;;;;;;26.45;49.15;100969.28;4991850;28;20041;-65
2022/07/20 00:57:50;;;;;;;6.55;2.00;;;;;;;26.60;48.90;100981.31;4991276;28;20034;-65
2022/07/20 01:00:15;;;;;;;2.78;2.00;;;;;;;26.68;48.79;100973.50;4992230;28;20049;-65
2022/07/20 01:02:41;;;;;;;2.85;1.65;;;;;;;26.60;48.77;100975.78;4987667;28;20073;-65
2022/07/20 01:05:14;;;;;;;2.92;2.10;;;;;;;26.68;48.40;100976.25;4971550;28;20042;-65
2022/07/20 01:07:52;;;;;;;3.58;1.95;;;;;;;26.73;48.54;100981.22;4971802;28;20038;-65
2022/07/20 01:10:21;;;;;;;4.57;1.83;;;;;;;26.82;47.59;100972.16;4971180;28;20030;-65
2022/07/20 01:12:48;;;;;;;3.03;1.77;;;;;;;26.82;48.14;100966.63;4972753;28;20069;-65
2022/07/20 01:15:15;;;;;;;3.60;2.15;;;;;;;26.73;47.73;100968.16;4972705;28;20058;-65
2022/07/20 01:17:47;;;;;;;3.35;2.03;;;;;;;26.70;48.59;100966.31;4954378;28;20042;-65
2022/07/20 01:20:18;;;;;;;3.40;2.10;;;;;;;26.71;48.41;100967.84;4972914;28;20045;-65
2022/07/20 01:22:47;;;;;;;5.05;2.13;;;;;;;26.70;48.43;100962.78;4972457;28;20042;-65
2022/07/20 01:25:15;;;;;;;3.13;2.03;;;;;;;26.74;48.56;100982.75;4972673;28;20487;-65
2022/07/20 01:27:41;;;;;;;4.18;2.05;;;;;;;26.74;48.40;100960.63;4971469;28;20483;-65
2022/07/20 01:30:15;;;;;;;3.80;2.17;;;;;;;26.67;48.54;100958.91;4972174;28;20169;-66
2022/07/20 01:32:41;;;;;;;2.60;1.90;;;;;;;26.70;48.18;100952.50;4972479;28;20446;-65
2022/07/20 01:35:09;;;;;;;4.93;2.40;;;;;;;26.58;47.71;100961.66;4988788;28;20040;-65
2022/07/20 01:37:37;;;;;;;2.97;2.00;;;;;;;26.65;48.04;100953.06;4987827;28;20458;-65
2022/07/20 01:40:05;;;;;;;6.35;2.25;;;;;;;26.72;47.98;100950.03;4972451;28;20049;-65
2022/07/20 01:42:30;;;;;;;4.15;2.60;;;;;;;26.65;47.68;100946.78;4972366;28;20480;-65
2022/07/20 01:45:00;;;;;;;3.80;2.17;;;;;;;26.79;47.79;100944.22;4972396;28;20043;-65
2022/07/20 01:47:26;;;;;;;3.90;2.40;;;;;;;26.71;48.02;100948.50;4971269;28;20023;-65
2022/07/20 01:49:51;;;;;;;6.57;2.35;;;;;;;26.76;47.96;100947.91;4972008;28;20671;-65
2022/07/20 01:52:17;;;;;;;3.05;2.00;;;;;;;26.67;47.39;100942.31;4972303;28;20035;-65
2022/07/20 01:54:54;;;;;;;7.75;2.38;;;;;;;26.69;47.25;100937.09;4972287;28;20044;-65
2022/07/20 01:57:24;;;;;;;5.70;2.50;;;;;;;26.78;47.28;100937.16;4971730;28;20118;-65
2022/07/20 01:59:50;;;;;;;3.53;2.13;;;;;;;26.78;47.55;100930.84;4971593;28;20090;-65
2022/07/20 02:02:15;;;;;;;3.85;1.85;;;;;;;26.77;47.66;100932.84;4972099;28;20030;-65
2022/07/20 02:04:43;;;;;;;4.50;2.10;;;;;;;26.74;48.01;100931.00;4972578;28;20084;-65
2022/07/20 02:07:14;;;;;;;3.85;2.30;;;;;;;26.62;48.24;100931.88;4972090;28;20663;-65
2022/07/20 02:09:39;;;;;;;;;;;;;;;26.49;47.81;100922.16;4974011;28;20043;-66
2022/07/20 02:12:07;;;;;;;3.55;1.90;;;;;;;26.64;47.53;100931.41;4974990;28;19921;-65
2022/07/20 02:14:33;;;;;;;3.58;2.35;;;;;;;26.63;48.24;100925.13;4976284;28;20605;-65
2022/07/20 02:16:58;;;;;;;4.35;2.30;;;;;;;26.66;48.34;100917.91;4975772;28;20043;-65
2022/07/20 02:19:28;;;;;;;3.72;1.85;;;;;;;26.69;48.56;100925.28;4974949;28;20037;-65
2022/07/20 02:21:59;;;;;;;4.53;2.20;;;;;;;26.62;48.34;100915.28;4975937;28;20081;-65
2022/07/20 02:24:29;;;;;;;2.58;1.88;;;;;;;26.62;48.21;100925.56;4975794;28;20134;-65
2022/07/20 02:26:55;;;;;;;4.63;2.53;;;;;;;26.57;47.80;100921.44;4975465;28;20035;-65
2022/07/20 02:29:20;;;;;;;3.50;1.92;;;;;;;26.59;48.01;100924.50;4975146;28;20031;-65
2022/07/20 02:31:53;;;;;;;3.72;1.92;;;;;;;26.50;48.77;100923.72;4975542;28;20093;-65
2022/07/20 02:34:20;;;;;;;4.68;2.38;;;;;;;26.38;48.79;100928.16;4967729;28;20081;-65
2022/07/20 02:36:47;;;;;;;4.95;2.35;;;;;;;26.37;49.11;100926.59;4994713;28;20068;-65
2022/07/20 02:39:16;;;;;;;3.03;1.95;;;;;;;26.30;49.34;100924.13;4977536;28;20062;-65
2022/07/20 02:41:41;;;;;;;3.60;2.17;;;;;;;26.30;48.75;100918.59;4975201;28;20049;-65
2022/07/20 02:44:10;;;;;;;5.15;2.35;;;;;;;26.35;48.78;100923.50;4975333;28;20113;-65
2022/07/20 02:46:38;;;;;;;6.57;2.13;;;;;;;26.29;48.72;100919.81;4975162;28;20038;-65
2022/07/20 02:49:06;;;;;;;3.03;2.13;;;;;;;26.19;49.51;100923.75;4974880;28;20042;-65
2022/07/20 02:51:32;;;;;;;3.78;2.25;;;;;;;26.19;49.50;100923.75;4975157;28;20030;-65
2022/07/20 02:54:00;;;;;;;4.57;2.35;;;;;;;26.21;49.41;100917.81;4974986;28;20376;-65
2022/07/20 02:56:25;;;;;;;4.10;2.40;;;;;;;26.22;49.54;100922.88;4974809;28;20527;-65
2022/07/20 02:58:51;;;;;;;3.13;1.92;;;;;;;26.09;49.65;100922.22;4973951;28;20125;-65
2022/07/20 03:01:26;;;;;;;4.32;2.33;;;;;;;26.04;50.15;100916.47;4975025;28;20094;-65
2022/07/20 03:03:54;;;;;;;3.15;2.05;;;;;;;26.08;49.80;100911.59;4974908;28;20035;-65
2022/07/20 03:06:20;;;;;;;4.32;2.38;;;;;;;26.08;49.90;100915.13;4974386;28;20034;-65
2022/07/20 03:08:46;;;;;;;3.83;2.63;;;;;;;26.07;50.16;100910.84;4973907;28;20070;-65
2022/07/20 03:11:23;;;;;;;5.15;2.50;;;;;;;26.04;49.89;100919.22;4972625;28;20042;-65
2022/07/20 03:13:51;;;;;;;5.50;2.35;;;;;;;26.04;49.90;100913.69;4974809;28;20117;-65
2022/07/20 03:16:21;;;;;;;5.05;2.60;;;;;;;25.75;50.81;100914.03;4975200;28;20049;-65
2022/07/20 03:18:49;;;;;;;3.78;2.20;;;;;;;25.67;50.56;100916.28;4972633;28;20045;-65
2022/07/20 03:21:15;;;;;;;4.07;2.20;;;;;;;25.63;50.90;100910.13;4974084;28;20034;-65
2022/07/20 03:23:43;;;;;;;4.53;2.20;;;;;;;25.60;51.54;100910.28;4974607;28;20715;-65
2022/07/20 03:26:12;;;;;;;4.05;2.35;;;;;;;25.57;51.76;100911.19;4975054;28;20101;-65
2022/07/20 03:28:42;;;;;;;3.47;2.00;;;;;;;25.44;52.37;100902.19;4973660;28;20049;-65
2022/07/20 03:31:07;;;;;;;3.63;1.97;;;;;;;25.33;53.11;100908.09;4975663;28;20035;-65
2022/07/20 03:33:35;;;;;;;4.30;2.42;;;;;;;25.18;53.49;100906.28;4978433;28;20043;-65
2022/07/20 03:36:03;;;;;;;8.32;2.17;;;;;;;25.25;53.33;100901.28;4976961;28;20043;-65
2022/07/20 03:38:36;;;;;;;2.97;2.00;;;;;;;25.08;54.12;100901.91;4973516;28;20041;-65
2022/07/20 03:41:04;;;;;;;4.03;2.47;;;;;;;25.04;54.33;100905.56;4974532;28;20042;-65
2022/07/20 03:43:35;;;;;;;4.40;2.33;;;;;;;25.08;54.01;100910.19;4977773;28;20414;-65
2022/07/20 03:46:03;;;;;;;5.35;2.38;;;;;;;25.08;53.82;100910.19;4993628;28;20048;-65
2022/07/20 03:48:32;;;;;;;4.10;2.53;;;;;;;25.03;54.21;100906.78;5018373;22;20050;-70
2022/07/20 03:51:00;;;;;;;4.07;2.22;;;;;;;25.05;54.15;100915.38;5007963;28;20021;-70
2022/07/20 03:53:35;;;;;;;4.68;2.47;;;;;;;24.96;54.84;100909.78;4993443;28;20064;-70
2022/07/20 03:56:00;;;;;;;3.40;1.95;;;;;;;24.85;55.22;100911.38;5002543;28;20040;-71
2022/07/20 03:58:28;;;;;;;3.30;2.03;;;;;;;24.86;55.82;100913.69;5011886;28;20022;-70
2022/07/20 04:00:56;;;;;;;4.23;2.30;;;;;;;24.83;55.52;100903.56;5012885;28;20061;-70
2022/07/20 04:03:33;;;;;;;4.78;2.53;;;;;;;24.79;55.78;100908.41;5012878;28;20280;-71
2022/07/20 04:06:03;;;;;;;3.97;2.30;;;;;;;24.80;55.63;100912.69;5012104;28;20100;-71
2022/07/20 04:08:34;;;;;;;4.38;2.33;;;;;;;24.77;56.30;100912.81;5011761;28;20105;-71
2022/07/20 04:11:02;;;;;;;3.55;2.17;;;;;;;24.76;57.06;100914.81;5011841;28;20040;-70
2022/07/20 04:13:29;;;;;;;5.07;2.60;;;;;;;24.64;57.65;100906.56;5012884;28;20033;-70
2022/07/20 04:15:58;;;;;;;3.75;2.35;;;;;;;24.72;57.56;100910.63;5012756;28;20455;-70
2022/07/20 04:18:24;;;;;;;3.72;2.45;;;;;;;24.73;57.52;100915.72;5012114;28;20038;-70
2022/07/20 04:20:51;;;;;;;4.18;2.47;;;;;;;24.50;58.73;100915.28;5012776;28;20052;-70
2022/07/20 04:23:21;;;;;;;4.35;2.25;;;;;;;24.43;60.12;100910.75;5000915;28;20042;-70
2022/07/20 04:25:52;;;;;;;4.55;2.40;;;;;;;24.46;60.18;100911.88;4976187;28;20038;-70
2022/07/20 04:28:20;;;;;;;3.63;2.63;;;;;;;24.41;61.42;100910.44;4992570;28;20034;-70
2022/07/20 04:30:51;;;;;;;3.47;2.20;;;;;;;24.50;61.27;100915.28;4992624;28;20038;-70
2022/07/20 04:33:18;;;;;;;7.38;2.40;;;;;;;24.41;61.46;100917.94;5006243;28;20116;-70
2022/07/20 04:35:46;;;;;;;5.78;2.63;;;;;;;24.35;62.19;100912.19;5012644;28;20602;-69
2022/07/20 04:38:17;;;;;;;2.85;2.05;;;;;;;24.42;63.28;100911.22;5011695;28;20049;-70
2022/07/20 04:40:48;;;;;;;;;;;;;;;24.40;62.86;100914.41;4995891;28;20073;-70
2022/07/20 04:43:14;;;;;;;4.18;2.65;;;;;;;24.39;63.36;100914.88;4994810;28;19917;-70
2022/07/20 04:45:40;;;;;;;4.60;2.28;;;;;;;24.43;63.96;100913.53;5012427;28;20075;-70
2022/07/20 04:48:05;;;;;;;4.30;2.80;;;;;;;24.61;63.18;100915.69;5011684;28;20037;-70
2022/07/20 04:50:31;;;;;;;3.25;2.40;;;;;;;24.73;61.79;100920.44;5012133;28;20041;-70
2022/07/20 04:53:00;;;;;;;3.60;2.40;;;;;;;24.89;60.92;100921.03;5012327;28;20026;-70
2022/07/20 04:55:28;;;;;;;4.13;2.30;;;;;;;25.00;60.27;100912.41;5012216;28;20038;-70
2022/07/20 04:57:57;;;;;;;5.35;2.40;;;;;;;24.93;61.48;100910.66;5011499;28;20398;-70
2022/07/20 05:00:25;;;;;;;7.15;2.40;;;;;;;24.95;62.88;100916.50;5012182;28;20032;-70
2022/07/20 05:02:51;;;;;;;3.53;2.45;;;;;;;24.92;62.53;100916.63;5011992;28;20044;-70
2022/07/20 05:05:21;;;;;;;4.43;2.70;;;;;;;24.98;62.50;100906.59;5011928;28;20453;-70
2022/07/20 05:07:54;;;;;;;3.65;2.40;;;;;;;25.06;62.18;100918.91;5011271;28;20106;-70
2022/07/20 05:10:22;;;;;;;3.42;2.28;;;;;;;25.03;63.87;100917.03;4994663;28;20030;-70
2022/07/20 05:12:48;;;;;;;3.40;2.33;;;;;;;25.05;63.25;100909.06;4992234;28;20475;-70
2022/07/20 05:15:16;;;;;;;4.85;2.50;;;;;;;25.13;63.34;100904.84;4992257;28;20034;-70
2022/07/20 05:17:43;;;;;;;5.45;2.78;;;;;;;25.24;63.23;100908.00;4991393;28;20045;-70
2022/07/20 05:20:12;;;;;;;2.88;1.95;;;;;;;25.44;60.29;100910.47;4991826;28;20022;-70
2022/07/20 05:22:40;;;;;;;3.13;2.28;;;;;;;25.62;60.85;100902.31;4992008;28;20056;-70
2022/07/20 05:25:08;;;;;;;3.92;2.47;;;;;;;25.74;61.77;100904.22;4991891;28;20121;-70
2022/07/20 05:27:34;;;;;;;4.80;2.47;;;;;;;25.80;60.70;100905.91;4990466;28;20478;-70
2022/07/20 05:30:01;;;;;;;5.97;2.05;;;;;;;26.01;59.06;100898.81;4990627;28;20057;-71
2022/07/20 05:32:37;;;;;;;5.65;2.67;;;;;;;26.38;59.56;100902.50;5011414;28;20061;-70
2022/07/20 05:35:05;;;;;;;5.30;2.30;;;;;;;26.94;55.43;100911.22;5011634;28;20244;-70
2022/07/20 05:37:30;;;;;;;6.88;2.50;;;;;;;27.16;52.13;100906.28;5009796;28;20104;-70
2022/07/20 05:39:56;;;;;;;3.78;2.30;;;;;;;27.71;52.87;100903.44;5010729;28;20125;-69
2022/07/20 05:42:21;;;;;;;3.50;2.47;;;;;;;27.96;51.67;100909.38;4993737;28;20073;-69
2022/07/20 05:44:51;;;;;;;4.22;2.47;;;;;;;28.18;52.54;100907.13;5015343;28;20306;-70
2022/07/20 05:47:23;;;;;;;3.33;2.22;;;;;;;28.44;50.13;100908.22;5014189;28;20037;-70
2022/07/20 05:50:01;;;;;;;3.15;2.00;;;;;;;28.65;50.42;100911.19;5015134;28;20033;-69
2022/07/20 05:52:27;;;;;;;5.35;2.70;;;;;;;28.82;49.51;100915.84;5015213;28;20026;-69
2022/07/20 05:54:55;;;;;;;3.03;2.22;;;;;;;29.05;49.28;100919.81;5014163;28;20034;-70
2022/07/20 05:57:26;;;;;;;3.88;2.25;;;;;;;29.05;47.41;100911.50;5014195;28;20045;-70
2022/07/20 05:59:51;;;;;;;3.63;2.50;;;;;;;29.27;47.70;100920.25;5014782;28;20033;-70
2022/07/20 06:02:17;;;;;;;3.45;2.30;;;;;;;29.54;47.72;100919.25;5014332;28;20382;-69
2022/07/20 06:04:49;;;;;;;5.03;2.00;;;;;;;29.75;49.24;100918.13;4997564;28;20426;-69
2022/07/20 06:07:20;;;;;;;4.68;2.42;;;;;;;29.75;48.75;100918.84;5014825;28;20049;-70
2022/07/20 06:09:46;;;;;;;2.80;2.05;;;;;;;29.91;47.54;100912.03;5011501;28;20041;-70
2022/07/20 06:12:14;;;;;;;2.92;1.90;;;;;;;30.04;48.25;100912.50;5013965;28;20037;-69
2022/07/20 06:14:40;;;;;;;3.55;2.30;;;;;;;29.78;45.19;100911.59;5014762;28;20044;-70
2022/07/20 06:17:05;;;;;;;3.83;2.40;;;;;;;30.08;46.57;100916.59;5014644;28;20034;-70
2022/07/20 06:19:31;;;;;;;3.40;2.30;;;;;;;30.14;47.47;100920.25;5014005;28;20065;-69
2022/07/20 06:21:58;;;;;;;3.60;2.40;;;;;;;30.24;48.49;100918.09;5014430;28;20045;-70
2022/07/20 06:24:26;;;;;;;3.25;2.33;;;;;;;30.05;45.22;100928.69;5014928;28;20478;-69
2022/07/20 06:26:52;;;;;;;3.70;2.40;;;;;;;30.32;45.05;100926.81;5014461;28;20087;-70
2022/07/20 06:29:18;;;;;;;4.18;1.98;;;;;;;30.53;45.19;100928.38;5012998;28;20065;-70
2022/07/20 06:31:48;;;;;;;5.55;2.33;;;;;;;30.58;47.71;100936.81;5014442;28;20048;-70
2022/07/20 06:34:14;;;;;;;4.22;2.50;;;;;;;30.60;44.49;100931.53;5014098;28;20038;-70
2022/07/20 06:36:46;;;;;;;3.83;2.20;;;;;;;30.77;45.29;100928.97;5014330;28;20026;-70
2022/07/20 06:39:12;;;;;;;3.75;2.10;;;;;;;30.86;46.68;100926.81;5012805;28;20030;-69
2022/07/20 06:41:40;;;;;;;6.43;2.38;;;;;;;30.46;42.65;100937.16;5013897;28;20045;-69
2022/07/20 06:44:10;;;;;;;5.82;2.53;;;;;;;30.37;44.45;100932.50;4996572;28;20494;-70
2022/07/20 06:46:38;;;;;;;6.18;2.38;;;;;;;30.69;45.91;100933.41;5014091;28;20049;-70
2022/07/20 06:49:06;;;;;;;3.03;2.10;;;;;;;30.78;43.70;100942.38;5010930;28;20038;-69
2022/07/20 06:51:37;;;;;;;3.50;2.42;;;;;;;30.47;44.49;100947.03;5014120;28;20022;-69
2022/07/20 06:54:05;;;;;;;3.60;2.30;;;;;;;30.67;43.16;100950.59;4996272;28;20042;-69
2022/07/20 06:56:33;;;;;;;3.67;2.08;;;;;;;30.78;45.19;100959.06;5012954;28;20486;-70
2022/07/20 06:59:00;;;;;;;3.00;2.10;;;;;;;30.96;43.21;100947.69;5013139;28;20044;-70
2022/07/20 07:01:26;;;;;;;4.68;2.30;;;;;;;31.21;46.00;100948.97;5014388;28;20038;-70
2022/07/20 07:03:51;;;;;;;4.32;2.30;;;;;;;31.49;45.09;100955.66;5013771;28;20045;-70
2022/07/20 07:06:21;;;;;;;4.75;2.25;;;;;;;31.71;44.73;100953.06;5013184;28;20053;-69
2022/07/20 07:08:52;;;;;;;2.85;2.50;;;;;;;31.87;43.71;100952.44;5013540;28;20037;-70
2022/07/20 07:11:18;;;;;;;3.83;2.22;;;;;;;31.69;42.63;100949.22;5011897;28;20045;-70
2022/07/20 07:13:46;;;;;;;7.78;2.45;;;;;;;32.03;42.62;100950.28;5013913;28;20026;-70
2022/07/20 07:16:12;;;;;;;4.10;2.17;;;;;;;32.23;44.11;100950.19;5013419;28;20402;-70
2022/07/20 07:18:40;;;;;;;4.07;2.40;;;;;;;32.21;42.03;100941.56;5013005;28;20046;-70
2022/07/20 07:21:09;;;;;;;3.90;2.40;;;;;;;32.15;41.40;100937.97;5013782;28;20049;-70
2022/07/20 07:23:37;;;;;;;3.47;1.92;;;;;;;32.53;41.43;100943.03;5012641;28;20521;-70
2022/07/20 07:26:15;;;;;;;2.92;2.15;;;;;;;32.43;40.47;100947.25;5012219;28;20129;-70
2022/07/20 07:28:49;;;;;;;3.95;2.40;;;;;;;32.42;40.03;100937.38;5011521;28;20061;-70
2022/07/20 07:31:17;;;;;;;2.60;2.20;;;;;;;32.55;41.96;100944.06;5013490;28;20440;-70
2022/07/20 07:33:47;;;;;;;2.45;1.95;;;;;;;32.78;40.73;100933.75;5012792;28;20033;-70
2022/07/20 07:36:13;;;;;;;3.95;2.72;;;;;;;33.07;39.56;100930.59;5013325;28;20413;-70
2022/07/20 07:38:39;;;;;;;3.45;2.10;;;;;;;32.85;38.53;100936.06;5012951;28;20037;-70
2022/07/20 07:41:08;;;;;;;4.50;2.25;;;;;;;33.11;39.42;100939.50;5013271;28;20044;-70
2022/07/20 07:43:35;;;;;;;4.63;2.42;;;;;;;33.19;38.55;100934.19;5012379;28;20022;-70
2022/07/20 07:46:01;;;;;;;5.68;2.03;;;;;;;33.44;38.30;100942.34;5014083;28;20041;-70
2022/07/20 07:48:27;;;;;;;4.07;2.45;;;;;;;33.23;37.59;100938.25;5012793;28;20456;-70
2022/07/20 07:50:57;;;;;;;2.78;1.90;;;;;;;33.51;38.91;100936.28;5013569;28;20550;-69
2022/07/20 07:53:25;;;;;;;4.57;2.47;;;;;;;33.12;37.43;100940.25;5012985;28;20057;-70
2022/07/20 07:55:55;;;;;;;2.95;2.17;;;;;;;33.23;37.29;100938.25;5013144;28;20022;-70
2022/07/20 07:58:23;;;;;;;4.95;2.60;;;;;;;33.57;37.13;100942.66;5012554;28;20058;-69
2022/07/20 08:00:53;;;;;;;3.40;2.25;;;;;;;33.82;36.89;100937.34;5012124;28;20037;-70
2022/07/20 08:03:19;;;;;;;3.60;2.10;;;;;;;33.94;36.32;100936.81;5013059;28;20383;-70
2022/07/20 08:05:52;;;;;;;3.70;2.33;;;;;;;33.82;35.82;100928.94;5012226;28;20117;-70
2022/07/20 08:08:17;;;;;;;3.13;2.30;;;;;;;33.90;35.87;100936.28;5011687;28;20040;-69
2022/07/20 08:10:44;;;;;;;5.22;2.45;;;;;;;34.25;36.05;100932.97;5011377;28;20042;-70
2022/07/20 08:13:13;;;;;;;3.80;2.30;;;;;;;34.46;36.53;100934.19;5012891;28;20022;-70
2022/07/20 08:15:41;;;;;;;6.68;2.10;;;;;;;34.84;36.61;100940.94;5012684;28;20034;-70
2022/07/20 08:18:15;;;;;;;5.53;2.20;;;;;;;34.72;34.59;100933.88;5011447;28;20038;-70
2022/07/20 08:20:40;;;;;;;3.80;1.70;;;;;;;34.85;35.14;100932.03;5012687;28;20033;-70
2022/07/20 08:23:08;;;;;;;3.72;2.30;;;;;;;34.91;34.07;100929.19;5012250;28;20046;-70
2022/07/20 08:25:41;;;;;;;4.78;2.53;;;;;;;35.02;34.94;100934.75;5011596;28;20037;-70
2022/07/20 08:28:15;;;;;;;7.35;2.50;;;;;;;34.85;34.81;100925.66;5011767;28;20124;-70
2022/07/20 08:30:43;;;;;;;2.88;2.35;;;;;;;35.05;36.72;100930.94;5012558;28;20113;-69
2022/07/20 08:33:09;;;;;;;3.08;2.38;;;;;;;35.46;37.11;100933.75;5011451;28;20033;-70
2022/07/20 08:35:43;;;;;;;5.22;3.38;;;;;;;35.68;35.07;100939.19;5011870;28;20060;-71
2022/07/20 08:38:09;;;;;;;4.60;3.30;;;;;;;35.66;34.26;100936.16;5011386;28;20045;-71
2022/07/20 08:40:35;;;;;;;6.78;3.92;;;;;;;35.93;35.05;100935.16;5012042;28;20040;-71
2022/07/20 08:43:04;;;;;;;14.20;5.20;;;;;;;35.98;33.75;100942.78;5011800;28;20399;-71
2022/07/20 08:45:37;;;;;;;28.20;11.30;;;;;;;36.22;33.18;100943.56;4994873;28;20034;-71
2022/07/20 08:48:10;;;;;;;28.73;14.23;;;;;;;36.22;32.74;100939.97;5010980;28;20026;-71
2022/07/20 08:50:36;;;;;;;25.45;11.50;;;;;;;36.19;33.79;100936.19;5012078;28;20069;-70
2022/07/20 08:53:05;;;;;;;21.80;11.18;;;;;;;36.39;32.58;100932.19;5011220;28;20112;-71
2022/07/20 08:55:31;;;;;;;17.90;8.50;;;;;;;36.10;32.56;100932.97;5011720;28;20036;-71
2022/07/20 08:57:57;;;;;;;19.52;9.10;;;;;;;35.92;32.83;100940.03;5010969;28;20410;-71
2022/07/20 09:00:23;;;;;;;18.25;9.10;;;;;;;36.35;34.06;100931.69;5011002;28;20040;-71
2022/07/20 09:02:53;;;;;;;18.40;9.10;;;;;;;36.24;33.71;100931.78;5011629;28;20084;-70
2022/07/20 09:05:23;;;;;;;17.55;6.90;;;;;;;36.58;34.92;100927.38;5011912;28;20117;-71
2022/07/20 09:07:51;;;;;;;15.30;6.88;;;;;;;36.90;34.01;100928.25;5010119;28;20033;-70
2022/07/20 09:10:27;;;;;;;13.93;7.20;;;;;;;36.84;33.52;100927.53;5010431;28;20037;-70
2022/07/20 09:13:18;;;;;;;14.27;7.13;;;;;;;36.87;33.85;100922.94;5011554;28;20087;-71
2022/07/20 09:15:53;;;;;;;11.68;6.20;;;;;;;37.30;33.77;100928.44;5011228;28;20449;-70
2022/07/20 09:18:21;;;;;;;8.00;4.10;;;;;;;37.10;33.13;100926.94;5009802;28;20040;-70
2022/07/20 09:20:55;;;;;;;9.43;4.18;;;;;;;37.40;32.93;100926.78;5011457;28;20080;-70
2022/07/20 09:23:31;;;;;;;5.78;3.85;;;;;;;37.64;34.21;100923.81;5011553;28;20375;-70
2022/07/20 09:26:10;;;;;;;3.95;2.72;;;;;;;37.98;32.69;100919.16;5010912;28;20030;-70
2022/07/20 09:28:40;;;;;;;4.00;2.70;;;;;;;38.16;32.47;100923.19;5011135;28;20409;-70
2022/07/20 09:31:15;;;;;;;6.20;2.73;;;;;;;38.03;32.25;100926.00;5011552;28;20490;-70
2022/07/20 09:33:58;;;;;;;6.03;2.47;;;;;;;37.26;34.05;100916.75;5011046;28;20026;-69
2022/07/20 09:36:28;;;;;;;5.80;2.60;;;;;;;37.44;32.92;100916.00;5011383;28;20492;-70
2022/07/20 09:39:06;;;;;;;3.33;2.40;;;;;;;37.70;34.21;100905.56;5011059;28;20030;-70
2022/07/20 09:41:33;;;;;;;3.28;2.20;;;;;;;38.04;33.79;100919.81;5010867;28;20037;-70
2022/07/20 09:44:07;;;;;;;3.30;2.55;;;;;;;38.23;32.57;100911.31;5011432;28;20033;-70
2022/07/20 09:49:13;;;;;;;3.67;2.50;;;;;;;38.61;33.68;100921.03;5008074;22;20056;-66
2022/07/20 09:51:55;;;;;;;4.75;2.58;;;;;;;38.75;31.71;100917.66;4995325;28;20502;-66
2022/07/20 09:54:24;;;;;;;3.20;2.20;;;;;;;39.03;32.05;100927.56;5011042;28;20042;-66
2022/07/20 09:56:55;;;;;;;3.28;2.55;;;;;;;39.27;31.65;100927.31;5010450;28;20064;-64
2022/07/20 09:59:21;;;;;;;2.95;2.08;;;;;;;39.46;32.12;100922.97;5010298;28;20494;-65
2022/07/20 10:01:52;;;;;;;4.88;2.80;;;;;;;39.83;31.46;100927.47;5010857;28;20072;-64
2022/07/20 10:04:22;;;;;;;3.15;1.90;;;;;;;39.82;31.49;100928.75;5011191;28;20073;-64
2022/07/20 10:06:50;;;;;;;4.72;2.65;;;;;;;39.07;31.27;100923.13;5010672;28;20068;-64
2022/07/20 10:09:17;;;;;;;2.60;2.15;;;;;;;39.72;31.44;100930.59;5009603;28;20052;-64
2022/07/20 10:11:50;;;;;;;2.50;1.90;;;;;;;39.91;30.92;100924.69;5007925;28;20045;-64
2022/07/20 10:14:20;;;;;;;3.53;2.05;;;;;;;39.92;31.83;100924.13;5010309;28;20042;-64
2022/07/20 10:16:52;;;;;;;6.70;2.15;;;;;;;40.14;30.88;100920.00;5011015;28;20494;-64
2022/07/20 10:19:45;;;;;;;3.50;2.28;;;;;;;40.04;30.25;100921.78;5009996;28;20087;-65
2022/07/20 10:22:16;;;;;;;3.85;2.20;;;;;;;39.21;31.03;100921.03;5008601;28;20402;-64
2022/07/20 10:24:47;;;;;;;3.60;2.08;;;;;;;39.83;31.65;100907.69;4990906;28;20070;-64
2022/07/20 10:27:36;;;;;;;3.45;2.38;;;;;;;40.38;30.88;100911.88;4991428;28;20574;-64
2022/07/20 10:30:15;;;;;;;3.72;2.28;;;;;;;40.70;31.20;100905.03;4993975;28;20034;-64
2022/07/20 10:32:56;;;;;;;2.45;1.95;;;;;;;41.07;31.21;100899.53;4995473;28;20044;-64
2022/07/20 10:35:31;;;;;;;2.47;2.08;;;;;;;41.38;31.17;100906.03;5014394;28;20092;-64
2022/07/20 10:38:07;;;;;;;2.70;2.30;;;;;;;41.42;28.17;100906.41;5013590;28;20092;-64
2022/07/20 10:41:31;;;;;;;2.03;1.60;;;;;;;41.69;27.44;100904.75;5013491;28;20521;-65
2022/07/20 10:43:21;;;;;;;3.60;1.55;;;;;;;41.48;27.49;100901.31;5014316;28;20041;-64
2022/07/20 10:45:49;;;;;;;2.63;1.83;;;;;;;41.74;27.34;100903.78;5014017;28;20084;-64
2022/07/20 10:48:18;;;;;;;3.08;1.95;;;;;;;41.40;26.61;100905.44;5011158;28;20250;-64
2022/07/20 10:50:54;;;;;;;2.40;1.90;;;;;;;41.57;27.19;100905.63;5014053;28;20040;-64
2022/07/20 10:53:26;;;;;;;2.10;1.70;;;;;;;41.95;28.02;100900.75;5013317;28;20038;-64
2022/07/20 10:55:58;;;;;;;3.58;1.77;;;;;;;41.22;26.53;100896.75;5002711;28;20030;-65
2022/07/20 10:58:42;;;;;;;2.45;1.75;;;;;;;41.54;27.53;100901.88;4993170;28;20038;-64
2022/07/20 11:01:12;;;;;;;2.10;1.70;;;;;;;42.30;26.53;100905.41;4994192;28;20113;-64
2022/07/20 11:03:53;;;;;;;5.38;2.17;;;;;;;42.36;25.68;100905.19;4994458;28;20046;-65
2022/07/20 11:06:23;;;;;;;3.33;2.08;;;;;;;42.63;26.48;100889.22;4994699;28;20380;-64
2022/07/20 11:08:59;;;;;;;3.78;2.00;;;;;;;42.64;25.89;100890.75;4993695;28;20129;-65
2022/07/20 11:11:35;;;;;;;2.35;2.15;;;;;;;42.84;25.46;100895.41;4991880;28;20118;-65
2022/07/20 11:14:05;;;;;;;2.15;1.90;;;;;;;43.01;27.40;100893.38;4993941;28;20030;-64
2022/07/20 11:16:34;;;;;;;3.20;1.95;;;;;;;43.26;27.20;100887.78;5013734;28;20038;-64
2022/07/20 11:19:05;;;;;;;1.95;1.58;;;;;;;43.45;25.80;100893.69;5012791;28;20084;-65
2022/07/20 11:21:30;;;;;;;;;;;;;;;43.56;26.05;100886.75;5013709;28;20034;-65
2022/07/20 11:23:56;;;;;;;3.90;1.80;;;;;;;43.70;26.71;100891.59;5013915;28;20091;-65
2022/07/20 11:26:21;;;;;;;2.53;1.77;;;;;;;43.87;25.86;100897.31;5013730;28;20045;-65
2022/07/20 11:28:52;;;;;;;2.53;1.92;;;;;;;44.04;25.53;100885.22;5012818;28;20033;-65
2022/07/20 11:31:35;;;;;;;5.10;2.10;;;;;;;43.84;25.14;100878.59;5003192;28;20057;-65
2022/07/20 11:34:04;;;;;;;3.42;2.10;;;;;;;44.11;25.36;100875.09;5001450;28;20034;-65
2022/07/20 11:36:34;;;;;;;2.28;1.73;;;;;;;44.36;25.07;100878.59;5013578;28;20121;-65
2022/07/20 11:39:20;;;;;;;3.58;1.63;;;;;;;44.45;25.83;100875.09;5012858;28;20398;-65